• Join FlightAware (Why Join?)
  • Login
  • US Flag 
01:40AM EDT


 

Airport Tracker/Info


-or-


 

Live Flight TrackerFlight Track Log ✈ N234CE ✈ 24-Apr-2013 ✈ PACX / CXF - PAFA / FAI

Flight Track Log - Related Links

Times and Time Zones

All times are in EDT time to prevent confusion due to time zone crossing. See the N234CE flight status page for this flight to view local times or setup timezone preferences in your user account.

Time Position Orientation Groundspeed Altitude Reporting Facility
EDT Latitude Longitude Course Direction KTS MPH feet Rate Location/Type
08:00PM 67.0333 -150.1833 152° Southeast 160 184 7,400  Level Anchorage Center
08:01PM 67.0000 -150.1333 150° Southeast 160 184 8,300 780 Climbing Anchorage Center
08:02PM 66.9500 -150.0833 159° South 160 184 9,000 300 Climbing Anchorage Center
08:03PM 66.9167 -150.0167 142° Southeast 190 219 9,000  Level Anchorage Center
08:04PM 66.8500 -149.9667 164° South 200 230 9,000  Level Anchorage Center
08:05PM 66.9786 -149.9214 152° Southeast  Level FlightAware Approximate
08:05PM 66.8000 -149.9000 152° Southeast 210 242 9,000  Level Anchorage Center
08:06PM 66.7500 -149.8500 158° South 190 219 9,000  Level Anchorage Center
08:07PM 66.7000 -149.8000 158° South 200 230 9,000  Level Anchorage Center
08:08PM 66.6500 -149.7500 158° South 180 207 9,000 120 Level Anchorage Center
08:09PM 66.6000 -149.6833 152° Southeast 230 265 9,300  Climbing Anchorage Center
08:10PM 66.5500 -149.6333 158° South 180 207 9,000 -180 Descending Anchorage Center
08:11PM 66.5000 -149.5833 158° South 210 242 9,000  Level Anchorage Center
08:12PM 66.4500 -149.5167 152° Southeast 200 230 9,000  Level Anchorage Center
08:13PM 66.4167 -149.4667 149° Southeast 190 219 9,000  Level Anchorage Center
08:14PM 66.3667 -149.4000 152° Southeast 190 219 9,000  Level Anchorage Center
08:15PM 66.3167 -149.3667 165° South 190 219 9,000  Level Anchorage Center
08:16PM 66.2667 -149.3167 158° South 200 230 9,000  Level Anchorage Center
08:17PM 66.2167 -149.2500 152° Southeast 200 230 9,000 60 Level Anchorage Center
08:18PM 66.1667 -149.2000 158° South 190 219 9,200 60 Climbing Anchorage Center
08:19PM 66.1167 -149.1500 158° South 200 230 9,200  Level Anchorage Center
08:20PM 66.0667 -149.1000 158° South 190 219 9,200  Level Anchorage Center
08:21PM 66.0167 -149.0500 158° South 190 219 9,200  Level Anchorage Center
08:22PM 65.9667 -149.0000 158° South 200 230 9,200  Level Anchorage Center
08:23PM 65.9167 -148.9500 158° South 190 219 9,200  Level Anchorage Center
08:24PM 65.8667 -148.9000 158° South 190 219 9,200  Level Anchorage Center
08:25PM 65.8167 -148.8500 158° South 190 219 9,200  Level Anchorage Center
08:26PM 65.7667 -148.8000 158° South 200 230 9,200  Level Anchorage Center
08:27PM 65.7167 -148.7500 158° South 190 219 9,200  Level Anchorage Center
08:28PM 65.6833 -148.7000 148° Southeast 190 219 9,200 -60 Level Anchorage Center
08:29PM 65.6333 -148.6500 158° South 190 219 9,100 -60 Descending Anchorage Center
08:30PM 65.5833 -148.6000 158° South 190 219 9,100  Level Anchorage Center
08:31PM 65.5333 -148.5333 151° Southeast 190 219 9,100  Level Anchorage Center
08:32PM 65.5000 -148.4333 129° Southeast 190 219 9,100  Level Anchorage Center
08:34PM 65.4419 -148.3117 139° Southeast  Level FlightAware Approximate
08:41PM 65.1656 -147.7625 143° Southeast  Level FlightAware Approximate
08:42PM 65.1245 -147.6895 143° Southeast  Level FlightAware Approximate
08:43PM 65.0834 -147.6167 143° Southeast  Level FlightAware Approximate
08:44PM 65.0347 -147.6552 198° South  Level FlightAware Approximate
08:45PM 64.9860 -147.6935 198° South  Level FlightAware Approximate
08:46PM 64.9373 -147.7318 198° South  Level FlightAware Approximate
08:47PM 64.8887 -147.7699 198° South  Level FlightAware Approximate
08:48PM 64.8403 -147.8097 203° Southwest  Level FlightAware Approximate
08:49PM 64.8151 -147.8564 203° Southwest  Level Estimated
08:50PM 64.8151 -147.8564 203° Southwest  Level Estimated
08:51PM 64.8151 -147.8564 203° Southwest  Level Estimated
08:52PM 64.8151 -147.8564 203° Southwest  Level Estimated
08:53PM 64.8151 -147.8564 203° Southwest  Level Estimated
08:54PM 64.8151 -147.8564 203° Southwest  Level Estimated
08:55PM 64.8151 -147.8564 203° Southwest  Level Estimated
08:56PM 64.8151 -147.8564 203° Southwest  Level Estimated
08:57PM 64.8151 -147.8564 203° Southwest  Level Estimated
08:58PM 64.8151 -147.8564 203° Southwest  Level Estimated
08:59PM 64.8151 -147.8564 203° Southwest  Level Estimated
09:00PM 64.8151 -147.8564 203° Southwest  Level Estimated
09:01PM 64.8151 -147.8564 203° Southwest  Level Estimated
09:02PM 64.8151 -147.8564 203° Southwest  Level Estimated
09:03PM 64.8151 -147.8564 203° Southwest  Level Estimated
09:04PM 64.8151 -147.8564 203° Southwest  Level Estimated
09:05PM 64.8151 -147.8564 203° Southwest  Level Estimated
09:06PM 64.8151 -147.8564 203° Southwest  Level Estimated